Terminal Aerodrome Forecast
Issued by NWS

Home | Current Version | Previous Version | Graphics & Text | Print | Product List | Glossary On
Versions: 1 2 3 4 5 6 7 8 9 10 11 12 13
603
FTUS43 KIWX 161131
TAFSBN
TAF
KSBN 161131Z 1612/1712 21009KT P6SM -SHSN OVC040
      TEMPO 1612/1616 3SM -SHSN OVC015
     FM161600 23008KT 3SM -SHSN OVC025
     FM162000 30007KT P6SM VCSH OVC025
     FM170200 31004KT 3/4SM -SHSN BR OVC010
     FM171000 27004KT P6SM OVC025=

USA.gov is the U.S. government's official web portal to all federal, state and local government web resources and services.